createdAt,value
2023-04-23T00:01:18.650Z,9.70
2023-04-23T00:03:46.302Z,9.60
2023-04-23T00:06:13.773Z,9.60
2023-04-23T00:08:41.611Z,9.60
2023-04-23T00:11:09.947Z,9.60
2023-04-23T00:13:37.262Z,9.60
2023-04-23T00:16:04.848Z,9.60
2023-04-23T00:18:31.673Z,9.60
2023-04-23T00:20:58.804Z,9.60
2023-04-23T00:23:25.832Z,9.60
2023-04-23T00:25:52.645Z,9.60
2023-04-23T00:28:22.799Z,9.60
2023-04-23T00:30:52.734Z,9.60
2023-04-23T00:33:19.724Z,9.60
2023-04-23T00:35:46.685Z,9.50
2023-04-23T00:38:13.647Z,9.50
2023-04-23T00:40:46.914Z,9.50
2023-04-23T00:43:13.748Z,9.50
2023-04-23T00:45:43.855Z,9.40
2023-04-23T00:48:12.474Z,9.40
2023-04-23T00:50:42.597Z,9.40
2023-04-23T00:53:09.473Z,9.40
2023-04-23T00:55:36.479Z,9.40
2023-04-23T00:58:09.147Z,9.40
2023-04-23T01:00:46.355Z,9.40
2023-04-23T01:03:14.634Z,9.30
2023-04-23T01:05:42.929Z,9.30
2023-04-23T01:08:15.614Z,9.30
2023-04-23T01:10:47.237Z,9.30
2023-04-23T01:13:14.588Z,9.30
2023-04-23T01:15:41.868Z,9.20
2023-04-23T01:18:08.760Z,9.20
2023-04-23T01:20:36.076Z,9.20
2023-04-23T01:23:06.367Z,9.20
2023-04-23T01:25:33.197Z,9.20
2023-04-23T01:28:00.166Z,9.20
2023-04-23T01:30:27.699Z,9.20
2023-04-23T01:32:58.497Z,9.20
2023-04-23T01:35:26.316Z,9.20
2023-04-23T01:37:55.080Z,9.20
2023-04-23T01:40:21.815Z,9.20
2023-04-23T01:42:49.245Z,9.20
2023-04-23T01:45:17.751Z,9.20
2023-04-23T01:47:50.417Z,9.20
2023-04-23T01:50:17.305Z,9.20
2023-04-23T01:52:45.755Z,9.20
2023-04-23T01:55:12.799Z,9.20
2023-04-23T01:57:40.033Z,9.20
2023-04-23T02:00:11.662Z,9.20
2023-04-23T02:02:39.865Z,9.20
2023-04-23T02:05:18.545Z,9.20
2023-04-23T02:07:50.663Z,9.20
2023-04-23T02:10:18.794Z,9.30
2023-04-23T02:12:45.681Z,9.30
2023-04-23T02:15:13.661Z,9.30
2023-04-23T02:17:40.684Z,9.30
2023-04-23T02:20:11.441Z,9.30
2023-04-23T02:22:42.688Z,9.30
2023-04-23T02:25:10.529Z,9.30
2023-04-23T02:27:37.510Z,9.30
2023-04-23T02:30:05.214Z,9.30
2023-04-23T02:32:32.134Z,9.30
2023-04-23T02:34:59.811Z,9.40
2023-04-23T02:37:27.214Z,9.40
2023-04-23T02:39:54.534Z,9.40
2023-04-23T02:42:21.388Z,9.40
2023-04-23T02:44:48.094Z,9.40
2023-04-23T02:47:14.971Z,9.40
2023-04-23T02:49:41.806Z,9.40
2023-04-23T02:52:09.312Z,9.40
2023-04-23T02:54:39.167Z,9.40
2023-04-23T02:57:06.252Z,9.40
2023-04-23T02:59:33.224Z,9.40
2023-04-23T03:02:02.576Z,9.40
2023-04-23T03:04:32.612Z,9.40
2023-04-23T03:06:59.372Z,9.50
2023-04-23T03:09:26.336Z,9.50
2023-04-23T03:11:53.356Z,9.50
2023-04-23T03:14:20.227Z,9.50
2023-04-23T03:16:46.925Z,9.50
2023-04-23T03:19:14.897Z,9.50
2023-04-23T03:21:41.951Z,9.50
2023-04-23T03:24:11.038Z,9.60
2023-04-23T03:26:37.842Z,9.60
2023-04-23T03:29:06.324Z,9.60
2023-04-23T03:31:33.412Z,9.60
2023-04-23T03:34:00.429Z,9.60
2023-04-23T03:36:33.120Z,9.60
2023-04-23T03:38:59.962Z,9.60
2023-04-23T03:41:26.814Z,9.60
2023-04-23T03:43:53.557Z,9.60
2023-04-23T03:46:22.474Z,9.50
2023-04-23T03:48:49.261Z,9.50
2023-04-23T03:51:16.132Z,9.50
2023-04-23T03:53:42.864Z,9.50
2023-04-23T03:56:09.834Z,9.50
2023-04-23T03:58:36.712Z,9.50
2023-04-23T04:01:03.709Z,9.50
2023-04-23T04:03:32.741Z,9.50
2023-04-23T04:05:59.703Z,9.60
2023-04-23T04:08:29.132Z,9.60
2023-04-23T04:10:58.718Z,9.60
2023-04-23T04:13:25.473Z,9.60
2023-04-23T04:15:52.293Z,9.60
2023-04-23T04:18:21.145Z,9.70
2023-04-23T04:20:47.948Z,9.70
2023-04-23T04:23:14.950Z,9.70
2023-04-23T04:25:42.314Z,9.70
2023-04-23T04:28:11.860Z,9.70
2023-04-23T04:30:39.594Z,9.80
2023-04-23T04:33:06.394Z,9.80
2023-04-23T04:35:33.152Z,9.80
2023-04-23T04:38:00.075Z,9.80
2023-04-23T04:40:28.745Z,9.80
2023-04-23T04:42:55.603Z,9.80
2023-04-23T04:45:23.283Z,9.80
2023-04-23T04:47:50.044Z,9.80
2023-04-23T04:50:17.167Z,9.80
2023-04-23T04:52:44.092Z,9.90
2023-04-23T04:55:10.896Z,9.90
2023-04-23T04:57:40.330Z,9.90
2023-04-23T05:00:28.175Z,10.00
2023-04-23T05:02:55.891Z,10.00
2023-04-23T05:05:23.877Z,10.00
2023-04-23T05:07:51.356Z,10.00
2023-04-23T05:10:18.290Z,10.00
2023-04-23T05:12:45.131Z,10.00
2023-04-23T05:15:13.715Z,10.00
2023-04-23T05:17:41.515Z,10.00
2023-04-23T05:20:10.916Z,10.10
2023-04-23T05:22:38.663Z,10.10
2023-04-23T05:25:06.537Z,10.10
2023-04-23T05:27:33.844Z,10.20
2023-04-23T05:30:05.931Z,10.20
2023-04-23T05:32:32.794Z,10.20
2023-04-23T05:35:00.351Z,10.20
2023-04-23T05:37:27.153Z,10.30
2023-04-23T05:39:53.999Z,10.30
2023-04-23T05:42:21.285Z,10.30
2023-04-23T05:44:48.036Z,10.40
2023-04-23T05:47:15.285Z,10.40
2023-04-23T05:49:42.025Z,10.40
2023-04-23T05:52:08.960Z,10.40
2023-04-23T05:54:35.737Z,10.50
2023-04-23T05:57:02.968Z,10.50
2023-04-23T05:59:29.750Z,10.60
2023-04-23T06:01:56.518Z,10.60
2023-04-23T06:04:23.753Z,10.60
2023-04-23T06:06:50.753Z,10.70
2023-04-23T06:09:17.640Z,10.70
2023-04-23T06:11:44.596Z,10.80
2023-04-23T06:14:11.450Z,10.80
2023-04-23T06:16:38.164Z,10.90
2023-04-23T06:19:04.912Z,10.90
2023-04-23T06:21:32.669Z,11.00
2023-04-23T06:24:02.303Z,11.00
2023-04-23T06:26:29.048Z,11.10
2023-04-23T06:28:56.391Z,11.10
2023-04-23T06:31:23.295Z,11.20
2023-04-23T06:33:50.192Z,11.20
2023-04-23T06:36:18.223Z,11.30
2023-04-23T06:38:45.089Z,11.40
2023-04-23T06:41:13.058Z,11.40
2023-04-23T06:43:39.862Z,11.50
2023-04-23T06:46:06.582Z,11.60
2023-04-23T06:48:33.784Z,11.60
2023-04-23T06:51:01.134Z,11.70
2023-04-23T06:53:28.045Z,11.80
2023-04-23T06:55:54.763Z,11.80
2023-04-23T06:58:23.389Z,11.90
2023-04-23T07:00:50.217Z,12.00
2023-04-23T07:03:17.525Z,12.00
2023-04-23T07:05:46.185Z,12.10
2023-04-23T07:08:13.646Z,12.20
2023-04-23T07:10:40.420Z,12.20
2023-04-23T07:13:07.530Z,12.30
2023-04-23T07:15:34.273Z,12.70
2023-04-23T07:18:01.234Z,13.60
2023-04-23T07:20:28.069Z,14.60
2023-04-23T07:22:55.142Z,15.60
2023-04-23T07:25:22.631Z,16.50
2023-04-23T07:27:49.504Z,17.40
2023-04-23T07:30:19.169Z,18.00
2023-04-23T07:32:46.600Z,18.50
2023-04-23T07:35:14.831Z,18.90
2023-04-23T07:37:41.613Z,19.30
2023-04-23T07:40:09.094Z,19.70
2023-04-23T07:42:35.888Z,19.90
2023-04-23T07:45:03.054Z,20.30
2023-04-23T07:47:29.891Z,20.40
2023-04-23T07:49:56.776Z,20.50
2023-04-23T07:52:23.581Z,20.70
2023-04-23T07:54:50.557Z,20.80
2023-04-23T07:57:17.742Z,20.80
2023-04-23T07:59:47.268Z,20.80
2023-04-23T08:02:17.012Z,20.80
2023-04-23T08:04:44.063Z,20.60
2023-04-23T08:07:11.722Z,20.50
2023-04-23T08:09:39.285Z,20.30
2023-04-23T08:12:06.705Z,20.00
2023-04-23T08:14:33.439Z,19.70
2023-04-23T08:17:00.384Z,19.40
2023-04-23T08:19:31.654Z,19.20
2023-04-23T08:21:58.412Z,19.20
2023-04-23T08:24:25.305Z,19.20
2023-04-23T08:26:52.270Z,19.20
2023-04-23T08:29:19.024Z,19.10
2023-04-23T08:31:46.179Z,19.10
2023-04-23T08:34:14.972Z,19.00
2023-04-23T08:36:41.801Z,18.90
2023-04-23T08:39:08.884Z,18.90
2023-04-23T08:41:42.913Z,18.90
2023-04-23T08:44:22.480Z,19.00
2023-04-23T08:46:51.598Z,19.10
2023-04-23T08:49:19.563Z,19.30
2023-04-23T08:51:52.517Z,19.30
2023-04-23T08:54:27.803Z,19.30
2023-04-23T08:56:58.390Z,19.40
2023-04-23T08:59:32.038Z,19.30
2023-04-23T09:02:07.997Z,19.30
2023-04-23T09:04:36.093Z,19.30
2023-04-23T09:07:04.569Z,19.40
2023-04-23T09:09:31.624Z,19.50
2023-04-23T09:11:58.911Z,19.50
2023-04-23T09:14:26.155Z,19.60
2023-04-23T09:16:54.056Z,19.60
2023-04-23T09:19:20.944Z,19.70
2023-04-23T09:21:47.712Z,19.90
2023-04-23T09:24:16.346Z,20.00
2023-04-23T09:26:48.451Z,19.90
2023-04-23T09:29:19.086Z,19.90
2023-04-23T09:31:49.457Z,19.90
2023-04-23T09:34:18.319Z,19.90
2023-04-23T09:36:47.403Z,19.90
2023-04-23T09:39:15.742Z,20.00
2023-04-23T09:41:46.595Z,20.10
2023-04-23T09:44:22.762Z,20.20
2023-04-23T09:46:50.127Z,20.30
2023-04-23T09:49:17.010Z,20.40
2023-04-23T09:51:49.016Z,20.50
2023-04-23T09:54:21.854Z,20.50
2023-04-23T09:57:01.333Z,20.60
2023-04-23T09:59:46.087Z,20.70
2023-04-23T10:02:15.736Z,20.70
2023-04-23T10:04:42.956Z,20.90
2023-04-23T10:07:20.122Z,21.00
2023-04-23T10:09:47.939Z,21.00
2023-04-23T10:14:49.546Z,20.50
2023-04-23T10:17:17.029Z,20.30
2023-04-23T10:19:44.578Z,20.00
2023-04-23T10:22:19.583Z,19.90
2023-04-23T10:24:49.579Z,19.80
2023-04-23T10:27:30.681Z,19.70
2023-04-23T10:30:06.552Z,19.60
2023-04-23T10:32:38.416Z,19.60
2023-04-23T10:35:07.317Z,19.60
2023-04-23T10:37:35.971Z,19.60
2023-04-23T10:40:13.002Z,19.70
2023-04-23T10:42:44.364Z,19.60
2023-04-23T10:45:25.592Z,19.70
2023-04-23T10:47:55.348Z,19.80
2023-04-23T10:50:30.422Z,19.90
2023-04-23T10:52:58.541Z,20.10
2023-04-23T10:55:30.822Z,20.10
2023-04-23T10:58:02.936Z,20.10
2023-04-23T11:00:46.026Z,20.00
2023-04-23T11:03:42.000Z,19.90
2023-04-23T11:06:15.662Z,19.80
2023-04-23T11:08:53.699Z,19.60
2023-04-23T11:11:39.751Z,19.50
2023-04-23T11:14:15.463Z,19.50
2023-04-23T11:16:42.528Z,19.50
2023-04-23T11:19:20.575Z,19.40
2023-04-23T11:22:02.325Z,19.50
2023-04-23T11:24:34.945Z,19.50
2023-04-23T11:27:02.660Z,19.50
2023-04-23T11:29:30.045Z,19.40
2023-04-23T11:34:28.253Z,19.30
2023-04-23T11:36:56.305Z,19.30
2023-04-23T11:39:26.972Z,19.30
2023-04-23T11:41:54.842Z,19.40
2023-04-23T11:44:22.296Z,19.50
2023-04-23T11:46:52.813Z,19.50
2023-04-23T11:49:20.142Z,19.50
2023-04-23T11:51:47.885Z,19.40
2023-04-23T11:54:14.982Z,19.30
2023-04-23T11:56:42.461Z,19.20
2023-04-23T11:59:09.736Z,19.20
2023-04-23T12:01:47.377Z,19.20
2023-04-23T12:04:20.824Z,19.30
2023-04-23T12:06:49.743Z,19.40
2023-04-23T12:09:18.379Z,19.40
2023-04-23T12:11:46.112Z,19.60
2023-04-23T12:14:14.931Z,19.70
2023-04-23T12:16:42.712Z,19.90
2023-04-23T12:19:17.269Z,20.10
2023-04-23T12:21:56.092Z,20.10
2023-04-23T12:24:24.214Z,20.10
2023-04-23T12:26:54.553Z,20.30
2023-04-23T12:29:23.086Z,20.10
2023-04-23T12:31:52.239Z,20.10
2023-04-23T12:34:20.584Z,20.00
2023-04-23T12:36:55.593Z,20.00
2023-04-23T12:39:30.893Z,20.00
2023-04-23T12:42:10.407Z,19.90
2023-04-23T12:44:38.688Z,19.80
2023-04-23T12:47:15.417Z,19.80
2023-04-23T12:49:43.280Z,19.80
2023-04-23T12:52:12.861Z,19.70
2023-04-23T12:54:40.901Z,19.60
2023-04-23T12:57:14.502Z,19.60
2023-04-23T12:59:41.809Z,19.50
2023-04-23T13:02:09.458Z,19.50
2023-04-23T13:04:36.771Z,19.40
2023-04-23T13:07:04.433Z,19.30
2023-04-23T13:09:31.299Z,19.30
2023-04-23T13:11:59.952Z,19.30
2023-04-23T13:14:27.926Z,19.30
2023-04-23T13:16:55.037Z,19.30
2023-04-23T13:19:28.062Z,19.40
2023-04-23T13:21:54.789Z,19.40
2023-04-23T13:24:21.561Z,19.40
2023-04-23T13:26:48.296Z,19.50
2023-04-23T13:29:17.886Z,19.50
2023-04-23T13:31:44.748Z,19.50
2023-04-23T13:34:14.641Z,19.50
2023-04-23T13:36:41.586Z,19.50
2023-04-23T13:39:09.394Z,19.50
2023-04-23T13:41:39.286Z,19.40
2023-04-23T13:44:06.172Z,19.40
2023-04-23T13:46:33.221Z,19.40
2023-04-23T13:49:01.212Z,19.30
2023-04-23T13:53:59.702Z,19.30
2023-04-23T13:56:30.828Z,19.30
2023-04-23T14:01:33.333Z,19.20
2023-04-23T14:04:00.323Z,19.10
2023-04-23T14:06:27.697Z,19.00
2023-04-23T14:08:54.556Z,18.80
2023-04-23T14:11:22.747Z,18.70
2023-04-23T14:13:49.511Z,18.70
2023-04-23T14:16:17.451Z,18.60
2023-04-23T14:18:45.760Z,18.60
2023-04-23T14:21:14.903Z,18.50
2023-04-23T14:23:50.781Z,18.30
2023-04-23T14:29:37.932Z,17.80
2023-04-23T14:32:04.831Z,17.50
2023-04-23T14:34:31.680Z,17.20
2023-04-23T14:36:58.550Z,17.00
2023-04-23T14:39:28.879Z,16.80
2023-04-23T14:41:56.314Z,16.60
2023-04-23T14:44:29.157Z,16.40
2023-04-23T14:46:56.516Z,16.20
2023-04-23T14:49:25.086Z,16.00
2023-04-23T14:51:57.749Z,15.90
2023-04-23T14:54:24.666Z,15.70
2023-04-23T14:56:52.090Z,15.50
2023-04-23T14:59:19.158Z,15.30
2023-04-23T15:01:46.070Z,15.20
2023-04-23T15:04:13.178Z,15.10
2023-04-23T15:06:42.854Z,15.00
2023-04-23T15:09:09.635Z,14.90
2023-04-23T15:11:37.931Z,14.80
2023-04-23T15:14:26.033Z,14.70
2023-04-23T15:16:52.972Z,14.70
2023-04-23T15:19:22.247Z,14.60
2023-04-23T15:21:49.307Z,14.60
2023-04-23T15:24:16.740Z,14.60
2023-04-23T15:26:44.127Z,14.70
2023-04-23T15:29:10.979Z,14.70
2023-04-23T15:31:38.863Z,14.70
2023-04-23T15:34:08.370Z,14.70
2023-04-23T15:36:35.784Z,14.70
2023-04-23T15:39:02.725Z,14.70
2023-04-23T15:41:29.537Z,14.60
2023-04-23T15:43:56.676Z,14.60
2023-04-23T15:46:23.611Z,14.60
2023-04-23T15:48:50.341Z,14.50
2023-04-23T15:51:17.766Z,14.50
2023-04-23T15:53:44.556Z,14.50
2023-04-23T15:56:11.583Z,14.40
2023-04-23T15:58:38.530Z,14.40
2023-04-23T16:01:07.168Z,14.40
2023-04-23T16:03:34.624Z,14.30
2023-04-23T16:06:01.799Z,14.30
2023-04-23T16:08:28.709Z,14.20
2023-04-23T16:10:57.106Z,14.20
2023-04-23T16:13:24.739Z,14.20
2023-04-23T16:15:51.639Z,14.20
2023-04-23T16:18:21.526Z,14.20
2023-04-23T16:20:50.837Z,14.30
2023-04-23T16:23:17.679Z,14.30
2023-04-23T16:25:44.887Z,14.30
2023-04-23T16:28:13.894Z,14.30
2023-04-23T16:30:40.837Z,14.40
2023-04-23T16:33:07.982Z,14.40
2023-04-23T16:35:36.808Z,14.50
2023-04-23T16:38:03.471Z,14.60
2023-04-23T16:40:30.188Z,14.60
2023-04-23T16:42:57.005Z,14.60
2023-04-23T16:45:23.882Z,14.70
2023-04-23T16:47:50.996Z,14.80
2023-04-23T16:50:17.948Z,14.80
2023-04-23T16:52:44.637Z,14.80
2023-04-23T16:55:11.461Z,14.90
2023-04-23T16:57:38.367Z,14.90
2023-04-23T17:00:05.871Z,14.90
2023-04-23T17:02:32.782Z,14.90
2023-04-23T17:04:59.678Z,14.90
2023-04-23T17:07:26.479Z,14.90
2023-04-23T17:09:53.240Z,14.80
2023-04-23T17:12:20.006Z,14.80
2023-04-23T17:14:46.806Z,14.80
2023-04-23T17:17:13.673Z,14.80
2023-04-23T17:19:40.722Z,14.80
2023-04-23T17:22:08.837Z,14.80
2023-04-23T17:24:37.020Z,14.80
2023-04-23T17:27:05.471Z,14.80
2023-04-23T17:29:32.458Z,14.80
2023-04-23T17:32:02.920Z,14.80
2023-04-23T17:34:29.865Z,14.80
2023-04-23T17:36:56.708Z,14.80
2023-04-23T17:39:25.450Z,14.80
2023-04-23T17:41:52.306Z,14.80
2023-04-23T17:44:19.238Z,14.80
2023-04-23T17:46:48.463Z,14.70
2023-04-23T17:49:18.849Z,14.70
2023-04-23T17:51:45.659Z,14.70
2023-04-23T17:54:12.484Z,14.60
2023-04-23T17:56:39.792Z,14.60
2023-04-23T17:59:06.659Z,14.60
2023-04-23T18:01:33.541Z,14.50
2023-04-23T18:04:00.625Z,14.50
2023-04-23T18:06:27.484Z,14.40
2023-04-23T18:08:54.241Z,14.40
2023-04-23T18:11:21.213Z,14.30
2023-04-23T18:13:53.509Z,14.30
2023-04-23T18:16:23.162Z,14.30
2023-04-23T18:18:49.970Z,14.20
2023-04-23T18:21:18.191Z,14.20
2023-04-23T18:23:45.597Z,14.10
2023-04-23T18:26:12.457Z,14.10
2023-04-23T18:28:39.206Z,14.00
2023-04-23T18:31:06.328Z,14.00
2023-04-23T18:33:52.036Z,14.00
2023-04-23T18:36:34.026Z,13.90
2023-04-23T18:39:03.995Z,13.90
2023-04-23T18:41:30.908Z,13.80
2023-04-23T18:44:00.061Z,13.80
2023-04-23T18:46:27.834Z,13.70
2023-04-23T18:49:17.531Z,13.70
2023-04-23T18:51:45.767Z,13.60
2023-04-23T18:54:17.636Z,13.60
2023-04-23T18:56:47.792Z,13.60
2023-04-23T18:59:14.937Z,13.60
2023-04-23T19:01:43.210Z,13.60
2023-04-23T19:04:10.433Z,13.60
2023-04-23T19:06:38.085Z,13.50
2023-04-23T19:09:05.054Z,13.50
2023-04-23T19:11:35.252Z,13.50
2023-04-23T19:14:05.128Z,13.40
2023-04-23T19:16:32.435Z,13.30
2023-04-23T19:19:02.144Z,13.30
2023-04-23T19:21:28.992Z,13.20
2023-04-23T19:23:58.872Z,13.20
2023-04-23T19:26:25.803Z,13.10
2023-04-23T19:28:52.696Z,13.10
2023-04-23T19:31:22.362Z,13.00
2023-04-23T19:33:49.274Z,13.00
2023-04-23T19:36:16.077Z,12.90
2023-04-23T19:38:43.001Z,12.80
2023-04-23T19:41:09.814Z,12.80
2023-04-23T19:43:36.615Z,12.70
2023-04-23T19:46:06.388Z,12.70
2023-04-23T19:48:33.289Z,12.70
2023-04-23T19:51:00.492Z,12.60
2023-04-23T19:53:27.774Z,12.60
2023-04-23T19:55:54.668Z,12.50
2023-04-23T19:58:21.472Z,12.40
2023-04-23T20:00:48.425Z,12.40
2023-04-23T20:03:15.687Z,12.40
2023-04-23T20:05:44.713Z,12.40
2023-04-23T20:08:16.364Z,12.40
2023-04-23T20:10:43.611Z,12.40
2023-04-23T20:13:10.457Z,12.30
2023-04-23T20:15:37.649Z,12.30
2023-04-23T20:18:05.434Z,12.30
2023-04-23T20:20:33.970Z,12.20
2023-04-23T20:23:00.858Z,12.20
2023-04-23T20:25:27.762Z,12.20
2023-04-23T20:27:57.006Z,12.20
2023-04-23T20:30:23.894Z,12.20
2023-04-23T20:32:50.778Z,12.10
2023-04-23T20:35:17.568Z,12.10
2023-04-23T20:37:44.354Z,12.00
2023-04-23T20:40:11.108Z,12.00
2023-04-23T20:42:39.397Z,11.90
2023-04-23T20:45:09.598Z,11.90
2023-04-23T20:47:36.740Z,11.80
2023-04-23T20:50:03.767Z,11.80
2023-04-23T20:52:30.668Z,11.70
2023-04-23T20:55:00.197Z,11.70
2023-04-23T20:57:27.130Z,11.70
2023-04-23T20:59:56.635Z,11.60
2023-04-23T21:02:23.661Z,11.60
2023-04-23T21:04:50.484Z,11.60
2023-04-23T21:07:17.367Z,11.50
2023-04-23T21:09:44.675Z,11.50
2023-04-23T21:12:11.967Z,11.50
2023-04-23T21:14:38.803Z,11.50
2023-04-23T21:17:05.765Z,11.40
2023-04-23T21:19:32.517Z,11.40
2023-04-23T21:21:59.321Z,11.30
2023-04-23T21:24:26.170Z,11.20
2023-04-23T21:26:53.028Z,11.20
2023-04-23T21:29:19.854Z,11.10
2023-04-23T21:31:48.263Z,11.10
2023-04-23T21:34:15.506Z,11.10
2023-04-23T21:36:44.638Z,11.00
2023-04-23T21:39:13.203Z,10.90
2023-04-23T21:41:40.411Z,10.90
2023-04-23T21:44:08.687Z,10.80
2023-04-23T21:46:35.575Z,10.80
2023-04-23T21:49:02.656Z,10.80
2023-04-23T21:51:30.079Z,10.70
2023-04-23T21:53:57.063Z,10.70
2023-04-23T21:56:24.112Z,10.70
2023-04-23T21:58:51.047Z,10.70
2023-04-23T22:01:18.470Z,10.70
2023-04-23T22:03:46.614Z,10.70
2023-04-23T22:06:15.626Z,10.70
2023-04-23T22:08:44.765Z,10.70
2023-04-23T22:11:12.499Z,10.70
2023-04-23T22:13:39.553Z,10.70
2023-04-23T22:16:16.398Z,10.70
2023-04-23T22:18:47.825Z,10.70
2023-04-23T22:21:14.653Z,10.80
2023-04-23T22:23:41.419Z,10.80
2023-04-23T22:26:08.240Z,10.80
2023-04-23T22:28:34.968Z,10.80
2023-04-23T22:31:01.847Z,10.80
2023-04-23T22:33:29.441Z,10.70
2023-04-23T22:35:56.694Z,10.70
2023-04-23T22:38:23.496Z,10.70
2023-04-23T22:40:50.588Z,10.70
2023-04-23T22:43:17.304Z,10.70
2023-04-23T22:45:46.720Z,10.70
2023-04-23T22:48:13.729Z,10.70
2023-04-23T22:50:40.488Z,10.70
2023-04-23T22:53:07.306Z,10.70
2023-04-23T22:55:34.719Z,10.70
2023-04-23T22:58:01.508Z,10.70
2023-04-23T23:00:28.389Z,10.70
2023-04-23T23:02:55.978Z,10.70
2023-04-23T23:05:27.971Z,10.70
2023-04-23T23:07:55.638Z,10.70
2023-04-23T23:10:23.103Z,10.70
2023-04-23T23:12:50.530Z,10.70
2023-04-23T23:15:17.392Z,10.70
2023-04-23T23:17:44.232Z,10.70
2023-04-23T23:20:14.762Z,10.70
2023-04-23T23:22:41.521Z,10.70
2023-04-23T23:25:11.815Z,10.70
2023-04-23T23:27:38.581Z,10.70
2023-04-23T23:30:06.267Z,10.70
2023-04-23T23:32:33.662Z,10.70
2023-04-23T23:35:00.504Z,10.70
2023-04-23T23:37:27.270Z,10.70
2023-04-23T23:39:57.149Z,10.70
2023-04-23T23:42:23.992Z,10.70
2023-04-23T23:44:50.909Z,10.70
2023-04-23T23:47:17.714Z,10.70
2023-04-23T23:49:44.658Z,10.70
2023-04-23T23:52:11.652Z,10.70
2023-04-23T23:54:38.517Z,10.70
2023-04-23T23:57:05.341Z,10.70
2023-04-23T23:59:32.102Z,10.80
